sensor_id;sensor_type;location;lat;lon;timestamp;P1;durP1;ratioP1;P2;durP2;ratioP2
19664;SDS011;9980;51.020;7.772;2023-12-28T00:02:14;3.47;;;3.17;;
19664;SDS011;9980;51.020;7.772;2023-12-28T00:04:42;3.57;;;3.23;;
19664;SDS011;9980;51.020;7.772;2023-12-28T00:07:09;3.60;;;3.40;;
19664;SDS011;9980;51.020;7.772;2023-12-28T00:09:36;5.77;;;3.20;;
19664;SDS011;9980;51.020;7.772;2023-12-28T00:12:03;3.40;;;3.10;;
19664;SDS011;9980;51.020;7.772;2023-12-28T00:14:31;5.90;;;3.53;;
19664;SDS011;9980;51.020;7.772;2023-12-28T00:16:58;4.33;;;3.53;;
19664;SDS011;9980;51.020;7.772;2023-12-28T00:19:25;3.40;;;3.10;;
19664;SDS011;9980;51.020;7.772;2023-12-28T00:21:52;3.57;;;3.23;;
19664;SDS011;9980;51.020;7.772;2023-12-28T00:24:19;3.20;;;3.00;;
19664;SDS011;9980;51.020;7.772;2023-12-28T00:26:47;3.67;;;3.37;;
19664;SDS011;9980;51.020;7.772;2023-12-28T00:29:14;3.60;;;3.30;;
19664;SDS011;9980;51.020;7.772;2023-12-28T00:31:41;4.10;;;3.17;;
19664;SDS011;9980;51.020;7.772;2023-12-28T00:34:09;4.03;;;3.60;;
19664;SDS011;9980;51.020;7.772;2023-12-28T00:36:36;4.33;;;3.60;;
19664;SDS011;9980;51.020;7.772;2023-12-28T00:39:03;3.87;;;3.57;;
19664;SDS011;9980;51.020;7.772;2023-12-28T00:41:29;3.37;;;3.10;;
19664;SDS011;9980;51.020;7.772;2023-12-28T00:43:56;3.80;;;3.53;;
19664;SDS011;9980;51.020;7.772;2023-12-28T00:46:23;3.90;;;3.60;;
19664;SDS011;9980;51.020;7.772;2023-12-28T00:48:50;3.90;;;3.60;;
19664;SDS011;9980;51.020;7.772;2023-12-28T00:51:17;3.70;;;3.40;;
19664;SDS011;9980;51.020;7.772;2023-12-28T00:53:45;4.00;;;3.70;;
19664;SDS011;9980;51.020;7.772;2023-12-28T00:56:12;4.53;;;3.83;;
19664;SDS011;9980;51.020;7.772;2023-12-28T00:58:39;4.00;;;3.67;;
19664;SDS011;9980;51.020;7.772;2023-12-28T01:01:07;6.60;;;3.70;;
19664;SDS011;9980;51.020;7.772;2023-12-28T01:03:35;4.53;;;4.13;;
19664;SDS011;9980;51.020;7.772;2023-12-28T01:06:02;4.20;;;3.80;;
19664;SDS011;9980;51.020;7.772;2023-12-28T01:08:30;4.20;;;3.90;;
19664;SDS011;9980;51.020;7.772;2023-12-28T01:10:57;5.97;;;4.10;;
19664;SDS011;9980;51.020;7.772;2023-12-28T01:13:24;3.93;;;3.63;;
19664;SDS011;9980;51.020;7.772;2023-12-28T01:15:50;4.07;;;3.67;;
19664;SDS011;9980;51.020;7.772;2023-12-28T01:18:17;4.27;;;3.87;;
19664;SDS011;9980;51.020;7.772;2023-12-28T01:20:45;4.97;;;4.10;;
19664;SDS011;9980;51.020;7.772;2023-12-28T01:23:12;4.60;;;4.20;;
19664;SDS011;9980;51.020;7.772;2023-12-28T01:25:39;4.07;;;3.70;;
19664;SDS011;9980;51.020;7.772;2023-12-28T01:28:06;3.43;;;3.17;;
19664;SDS011;9980;51.020;7.772;2023-12-28T01:30:33;3.97;;;3.57;;
19664;SDS011;9980;51.020;7.772;2023-12-28T01:33:02;4.43;;;4.07;;
19664;SDS011;9980;51.020;7.772;2023-12-28T01:35:29;4.23;;;3.83;;
19664;SDS011;9980;51.020;7.772;2023-12-28T01:37:55;4.30;;;3.90;;
19664;SDS011;9980;51.020;7.772;2023-12-28T01:40:24;4.10;;;3.70;;
19664;SDS011;9980;51.020;7.772;2023-12-28T01:42:52;3.80;;;3.60;;
19664;SDS011;9980;51.020;7.772;2023-12-28T01:45:19;3.93;;;3.63;;
19664;SDS011;9980;51.020;7.772;2023-12-28T01:47:45;4.33;;;4.03;;
19664;SDS011;9980;51.020;7.772;2023-12-28T01:50:15;4.23;;;3.83;;
19664;SDS011;9980;51.020;7.772;2023-12-28T01:52:42;4.40;;;3.90;;
19664;SDS011;9980;51.020;7.772;2023-12-28T01:55:10;4.50;;;4.10;;
19664;SDS011;9980;51.020;7.772;2023-12-28T01:57:38;5.60;;;3.73;;
19664;SDS011;9980;51.020;7.772;2023-12-28T02:00:06;4.33;;;3.93;;
19664;SDS011;9980;51.020;7.772;2023-12-28T02:02:40;4.20;;;3.90;;
19664;SDS011;9980;51.020;7.772;2023-12-28T02:05:08;3.90;;;3.60;;
19664;SDS011;9980;51.020;7.772;2023-12-28T02:07:39;4.27;;;3.97;;
19664;SDS011;9980;51.020;7.772;2023-12-28T02:10:07;5.43;;;4.00;;
19664;SDS011;9980;51.020;7.772;2023-12-28T02:12:34;4.33;;;4.00;;
19664;SDS011;9980;51.020;7.772;2023-12-28T02:15:02;4.03;;;3.73;;
19664;SDS011;9980;51.020;7.772;2023-12-28T02:20:08;4.23;;;3.83;;
19664;SDS011;9980;51.020;7.772;2023-12-28T02:22:37;4.23;;;3.90;;
19664;SDS011;9980;51.020;7.772;2023-12-28T02:25:10;4.17;;;3.87;;
19664;SDS011;9980;51.020;7.772;2023-12-28T02:27:42;4.10;;;3.80;;
19664;SDS011;9980;51.020;7.772;2023-12-28T02:30:18;4.17;;;3.87;;
19664;SDS011;9980;51.020;7.772;2023-12-28T02:35:45;3.80;;;3.50;;
19664;SDS011;9980;51.020;7.772;2023-12-28T02:38:20;4.00;;;3.70;;
19664;SDS011;9980;51.020;7.772;2023-12-28T02:40:50;5.20;;;4.03;;
19664;SDS011;9980;51.020;7.772;2023-12-28T02:43:18;4.33;;;3.93;;
19664;SDS011;9980;51.020;7.772;2023-12-28T02:45:45;4.03;;;3.73;;
19664;SDS011;9980;51.020;7.772;2023-12-28T02:48:12;4.07;;;3.77;;
19664;SDS011;9980;51.020;7.772;2023-12-28T02:50:40;4.53;;;4.03;;
19664;SDS011;9980;51.020;7.772;2023-12-28T02:53:07;4.60;;;4.20;;
19664;SDS011;9980;51.020;7.772;2023-12-28T02:55:34;3.97;;;3.67;;
19664;SDS011;9980;51.020;7.772;2023-12-28T02:58:01;4.03;;;3.70;;
19664;SDS011;9980;51.020;7.772;2023-12-28T03:00:28;5.37;;;3.77;;
19664;SDS011;9980;51.020;7.772;2023-12-28T03:02:56;4.07;;;3.77;;
19664;SDS011;9980;51.020;7.772;2023-12-28T03:05:23;4.30;;;3.93;;
19664;SDS011;9980;51.020;7.772;2023-12-28T03:07:50;5.20;;;4.07;;
19664;SDS011;9980;51.020;7.772;2023-12-28T03:10:17;3.90;;;3.57;;
19664;SDS011;9980;51.020;7.772;2023-12-28T03:12:44;4.63;;;4.00;;
19664;SDS011;9980;51.020;7.772;2023-12-28T03:15:12;4.97;;;3.80;;
19664;SDS011;9980;51.020;7.772;2023-12-28T03:17:40;3.67;;;3.43;;
19664;SDS011;9980;51.020;7.772;2023-12-28T03:20:07;3.90;;;3.60;;
19664;SDS011;9980;51.020;7.772;2023-12-28T03:22:36;6.40;;;3.30;;
19664;SDS011;9980;51.020;7.772;2023-12-28T03:25:03;3.87;;;3.47;;
19664;SDS011;9980;51.020;7.772;2023-12-28T03:27:31;3.93;;;3.53;;
19664;SDS011;9980;51.020;7.772;2023-12-28T03:29:58;3.70;;;3.40;;
19664;SDS011;9980;51.020;7.772;2023-12-28T03:32:25;3.93;;;3.63;;
19664;SDS011;9980;51.020;7.772;2023-12-28T03:34:52;3.63;;;3.40;;
19664;SDS011;9980;51.020;7.772;2023-12-28T03:37:19;3.70;;;3.40;;
19664;SDS011;9980;51.020;7.772;2023-12-28T03:39:46;3.40;;;3.10;;
19664;SDS011;9980;51.020;7.772;2023-12-28T03:42:13;3.30;;;3.00;;
19664;SDS011;9980;51.020;7.772;2023-12-28T03:44:41;3.00;;;2.80;;
19664;SDS011;9980;51.020;7.772;2023-12-28T03:47:08;3.20;;;3.00;;
19664;SDS011;9980;51.020;7.772;2023-12-28T03:49:35;3.50;;;3.20;;
19664;SDS011;9980;51.020;7.772;2023-12-28T03:52:02;3.50;;;3.23;;
19664;SDS011;9980;51.020;7.772;2023-12-28T03:54:29;3.47;;;3.27;;
19664;SDS011;9980;51.020;7.772;2023-12-28T03:56:56;3.50;;;3.20;;
19664;SDS011;9980;51.020;7.772;2023-12-28T03:59:24;3.30;;;3.07;;
19664;SDS011;9980;51.020;7.772;2023-12-28T04:01:51;3.37;;;3.13;;
19664;SDS011;9980;51.020;7.772;2023-12-28T04:04:18;3.30;;;3.10;;
19664;SDS011;9980;51.020;7.772;2023-12-28T04:06:45;3.53;;;3.30;;
19664;SDS011;9980;51.020;7.772;2023-12-28T04:09:12;3.50;;;3.10;;
19664;SDS011;9980;51.020;7.772;2023-12-28T04:11:39;4.37;;;3.60;;
19664;SDS011;9980;51.020;7.772;2023-12-28T04:14:06;3.80;;;3.50;;
19664;SDS011;9980;51.020;7.772;2023-12-28T04:16:33;4.50;;;3.20;;
19664;SDS011;9980;51.020;7.772;2023-12-28T04:19:00;3.80;;;3.40;;
19664;SDS011;9980;51.020;7.772;2023-12-28T04:21:28;3.30;;;3.10;;
19664;SDS011;9980;51.020;7.772;2023-12-28T04:23:55;3.50;;;3.27;;
19664;SDS011;9980;51.020;7.772;2023-12-28T04:26:22;4.00;;;3.70;;
19664;SDS011;9980;51.020;7.772;2023-12-28T04:28:49;3.33;;;3.03;;
19664;SDS011;9980;51.020;7.772;2023-12-28T04:31:16;3.90;;;3.50;;
19664;SDS011;9980;51.020;7.772;2023-12-28T04:33:44;3.70;;;3.40;;
19664;SDS011;9980;51.020;7.772;2023-12-28T04:36:11;3.63;;;3.33;;
19664;SDS011;9980;51.020;7.772;2023-12-28T04:38:38;3.60;;;3.27;;
19664;SDS011;9980;51.020;7.772;2023-12-28T04:41:05;4.27;;;3.83;;
19664;SDS011;9980;51.020;7.772;2023-12-28T04:43:32;3.90;;;3.60;;
19664;SDS011;9980;51.020;7.772;2023-12-28T04:46:02;4.00;;;3.60;;
19664;SDS011;9980;51.020;7.772;2023-12-28T04:48:32;4.40;;;4.00;;
19664;SDS011;9980;51.020;7.772;2023-12-28T04:51:02;4.33;;;4.03;;
19664;SDS011;9980;51.020;7.772;2023-12-28T04:53:29;4.60;;;4.20;;
19664;SDS011;9980;51.020;7.772;2023-12-28T04:55:56;4.20;;;3.90;;
19664;SDS011;9980;51.020;7.772;2023-12-28T04:58:23;4.20;;;3.90;;
19664;SDS011;9980;51.020;7.772;2023-12-28T05:00:50;4.63;;;4.23;;
19664;SDS011;9980;51.020;7.772;2023-12-28T05:03:18;6.47;;;4.20;;
19664;SDS011;9980;51.020;7.772;2023-12-28T05:05:45;5.07;;;4.07;;
19664;SDS011;9980;51.020;7.772;2023-12-28T05:08:15;4.73;;;4.33;;
19664;SDS011;9980;51.020;7.772;2023-12-28T05:10:42;4.83;;;4.43;;
19664;SDS011;9980;51.020;7.772;2023-12-28T05:13:10;4.50;;;4.20;;
19664;SDS011;9980;51.020;7.772;2023-12-28T05:15:37;4.80;;;4.40;;
19664;SDS011;9980;51.020;7.772;2023-12-28T05:18:04;4.80;;;4.43;;
19664;SDS011;9980;51.020;7.772;2023-12-28T05:20:33;4.90;;;4.50;;
19664;SDS011;9980;51.020;7.772;2023-12-28T05:23:00;4.83;;;4.43;;
19664;SDS011;9980;51.020;7.772;2023-12-28T05:25:27;7.03;;;5.00;;
19664;SDS011;9980;51.020;7.772;2023-12-28T05:27:54;6.40;;;5.67;;
19664;SDS011;9980;51.020;7.772;2023-12-28T05:30:21;5.97;;;5.00;;
19664;SDS011;9980;51.020;7.772;2023-12-28T05:32:48;5.70;;;5.17;;
19664;SDS011;9980;51.020;7.772;2023-12-28T05:35:15;4.20;;;3.80;;
19664;SDS011;9980;51.020;7.772;2023-12-28T05:37:42;4.90;;;4.50;;
19664;SDS011;9980;51.020;7.772;2023-12-28T05:40:09;5.13;;;4.63;;
19664;SDS011;9980;51.020;7.772;2023-12-28T05:42:37;5.00;;;4.60;;
19664;SDS011;9980;51.020;7.772;2023-12-28T05:45:04;5.40;;;4.90;;
19664;SDS011;9980;51.020;7.772;2023-12-28T05:47:32;4.80;;;4.30;;
19664;SDS011;9980;51.020;7.772;2023-12-28T05:49:59;4.43;;;4.13;;
19664;SDS011;9980;51.020;7.772;2023-12-28T05:52:26;5.40;;;4.77;;
19664;SDS011;9980;51.020;7.772;2023-12-28T05:54:53;4.93;;;4.50;;
19664;SDS011;9980;51.020;7.772;2023-12-28T05:57:23;5.90;;;4.70;;
19664;SDS011;9980;51.020;7.772;2023-12-28T05:59:51;5.27;;;4.77;;
19664;SDS011;9980;51.020;7.772;2023-12-28T06:02:18;5.20;;;4.73;;
19664;SDS011;9980;51.020;7.772;2023-12-28T06:04:45;4.90;;;4.43;;
19664;SDS011;9980;51.020;7.772;2023-12-28T06:07:12;6.67;;;4.73;;
19664;SDS011;9980;51.020;7.772;2023-12-28T06:09:39;5.10;;;4.60;;
19664;SDS011;9980;51.020;7.772;2023-12-28T06:12:06;4.70;;;4.30;;
19664;SDS011;9980;51.020;7.772;2023-12-28T06:14:33;4.63;;;4.23;;
19664;SDS011;9980;51.020;7.772;2023-12-28T06:17:00;6.47;;;4.80;;
19664;SDS011;9980;51.020;7.772;2023-12-28T06:19:27;10.17;;;4.83;;
19664;SDS011;9980;51.020;7.772;2023-12-28T06:21:54;6.03;;;4.87;;
19664;SDS011;9980;51.020;7.772;2023-12-28T06:24:21;6.20;;;4.77;;
19664;SDS011;9980;51.020;7.772;2023-12-28T06:26:48;5.40;;;4.90;;
19664;SDS011;9980;51.020;7.772;2023-12-28T06:29:15;5.03;;;4.63;;
19664;SDS011;9980;51.020;7.772;2023-12-28T06:31:42;6.37;;;4.53;;
19664;SDS011;9980;51.020;7.772;2023-12-28T06:34:09;4.73;;;4.33;;
19664;SDS011;9980;51.020;7.772;2023-12-28T06:36:36;4.17;;;3.87;;
19664;SDS011;9980;51.020;7.772;2023-12-28T06:39:03;4.87;;;4.47;;
19664;SDS011;9980;51.020;7.772;2023-12-28T06:41:31;4.67;;;4.27;;
19664;SDS011;9980;51.020;7.772;2023-12-28T06:43:58;5.63;;;5.00;;
19664;SDS011;9980;51.020;7.772;2023-12-28T06:46:25;4.80;;;4.50;;
19664;SDS011;9980;51.020;7.772;2023-12-28T06:48:52;5.10;;;4.60;;
19664;SDS011;9980;51.020;7.772;2023-12-28T06:51:19;4.43;;;4.03;;
19664;SDS011;9980;51.020;7.772;2023-12-28T06:53:48;4.60;;;4.30;;
19664;SDS011;9980;51.020;7.772;2023-12-28T06:56:16;4.40;;;4.00;;
19664;SDS011;9980;51.020;7.772;2023-12-28T06:58:43;4.93;;;4.43;;
19664;SDS011;9980;51.020;7.772;2023-12-28T07:01:10;5.30;;;4.80;;
19664;SDS011;9980;51.020;7.772;2023-12-28T07:03:39;4.63;;;4.27;;
19664;SDS011;9980;51.020;7.772;2023-12-28T07:06:06;4.93;;;4.43;;
19664;SDS011;9980;51.020;7.772;2023-12-28T07:08:34;4.50;;;4.20;;
19664;SDS011;9980;51.020;7.772;2023-12-28T07:11:02;4.77;;;4.23;;
19664;SDS011;9980;51.020;7.772;2023-12-28T07:13:30;4.30;;;3.97;;
19664;SDS011;9980;51.020;7.772;2023-12-28T07:15:57;4.60;;;4.30;;
19664;SDS011;9980;51.020;7.772;2023-12-28T07:18:26;4.93;;;4.50;;
19664;SDS011;9980;51.020;7.772;2023-12-28T07:20:55;5.73;;;4.43;;
19664;SDS011;9980;51.020;7.772;2023-12-28T07:23:21;4.40;;;4.00;;
19664;SDS011;9980;51.020;7.772;2023-12-28T07:25:48;4.10;;;3.80;;
19664;SDS011;9980;51.020;7.772;2023-12-28T07:28:15;4.87;;;4.37;;
19664;SDS011;9980;51.020;7.772;2023-12-28T07:30:42;5.27;;;4.20;;
19664;SDS011;9980;51.020;7.772;2023-12-28T07:33:09;5.00;;;4.60;;
19664;SDS011;9980;51.020;7.772;2023-12-28T07:35:37;5.57;;;4.40;;
19664;SDS011;9980;51.020;7.772;2023-12-28T07:38:04;4.93;;;4.43;;
19664;SDS011;9980;51.020;7.772;2023-12-28T07:40:32;4.77;;;4.30;;
19664;SDS011;9980;51.020;7.772;2023-12-28T07:42:59;4.30;;;3.90;;
19664;SDS011;9980;51.020;7.772;2023-12-28T07:45:28;4.60;;;4.20;;
19664;SDS011;9980;51.020;7.772;2023-12-28T07:47:55;6.80;;;4.27;;
19664;SDS011;9980;51.020;7.772;2023-12-28T07:50:24;4.83;;;4.33;;
19664;SDS011;9980;51.020;7.772;2023-12-28T07:52:52;4.67;;;4.27;;
19664;SDS011;9980;51.020;7.772;2023-12-28T07:55:18;4.30;;;3.90;;
19664;SDS011;9980;51.020;7.772;2023-12-28T07:57:46;4.40;;;4.10;;
19664;SDS011;9980;51.020;7.772;2023-12-28T08:00:13;4.47;;;4.07;;
19664;SDS011;9980;51.020;7.772;2023-12-28T08:02:41;5.13;;;4.43;;
19664;SDS011;9980;51.020;7.772;2023-12-28T08:05:08;6.33;;;4.77;;
19664;SDS011;9980;51.020;7.772;2023-12-28T08:07:35;4.40;;;4.10;;
19664;SDS011;9980;51.020;7.772;2023-12-28T08:10:02;4.43;;;3.70;;
19664;SDS011;9980;51.020;7.772;2023-12-28T08:12:30;4.63;;;4.10;;
19664;SDS011;9980;51.020;7.772;2023-12-28T08:14:57;4.73;;;4.33;;
19664;SDS011;9980;51.020;7.772;2023-12-28T08:17:26;4.43;;;3.70;;
19664;SDS011;9980;51.020;7.772;2023-12-28T08:19:53;6.80;;;4.40;;
19664;SDS011;9980;51.020;7.772;2023-12-28T08:22:20;4.40;;;4.03;;
19664;SDS011;9980;51.020;7.772;2023-12-28T08:24:47;6.70;;;4.20;;
19664;SDS011;9980;51.020;7.772;2023-12-28T08:27:14;4.40;;;3.80;;
19664;SDS011;9980;51.020;7.772;2023-12-28T08:29:41;5.23;;;3.60;;
19664;SDS011;9980;51.020;7.772;2023-12-28T08:32:08;4.30;;;3.90;;
19664;SDS011;9980;51.020;7.772;2023-12-28T08:34:37;4.03;;;3.70;;
19664;SDS011;9980;51.020;7.772;2023-12-28T08:37:04;4.47;;;4.07;;
19664;SDS011;9980;51.020;7.772;2023-12-28T08:39:31;4.00;;;3.70;;
19664;SDS011;9980;51.020;7.772;2023-12-28T08:41:58;4.97;;;3.80;;
19664;SDS011;9980;51.020;7.772;2023-12-28T08:44:25;4.17;;;3.53;;
19664;SDS011;9980;51.020;7.772;2023-12-28T08:46:52;4.50;;;3.57;;
19664;SDS011;9980;51.020;7.772;2023-12-28T08:49:19;4.97;;;3.90;;
19664;SDS011;9980;51.020;7.772;2023-12-28T08:51:47;4.07;;;3.77;;
19664;SDS011;9980;51.020;7.772;2023-12-28T08:54:14;4.33;;;3.93;;
19664;SDS011;9980;51.020;7.772;2023-12-28T08:56:41;4.90;;;4.50;;
19664;SDS011;9980;51.020;7.772;2023-12-28T08:59:08;3.90;;;3.50;;
19664;SDS011;9980;51.020;7.772;2023-12-28T09:01:35;4.10;;;3.80;;
19664;SDS011;9980;51.020;7.772;2023-12-28T09:04:02;5.40;;;3.27;;
19664;SDS011;9980;51.020;7.772;2023-12-28T09:06:29;3.97;;;3.33;;
19664;SDS011;9980;51.020;7.772;2023-12-28T09:08:56;4.10;;;3.40;;
19664;SDS011;9980;51.020;7.772;2023-12-28T09:11:24;4.93;;;3.37;;
19664;SDS011;9980;51.020;7.772;2023-12-28T09:13:51;4.53;;;3.70;;
19664;SDS011;9980;51.020;7.772;2023-12-28T09:16:18;6.10;;;4.20;;
19664;SDS011;9980;51.020;7.772;2023-12-28T09:18:45;4.77;;;3.77;;
19664;SDS011;9980;51.020;7.772;2023-12-28T09:21:12;6.80;;;6.20;;
19664;SDS011;9980;51.020;7.772;2023-12-28T09:23:39;11.07;;;6.77;;
19664;SDS011;9980;51.020;7.772;2023-12-28T09:26:07;4.23;;;3.83;;
19664;SDS011;9980;51.020;7.772;2023-12-28T09:28:34;4.17;;;3.70;;
19664;SDS011;9980;51.020;7.772;2023-12-28T09:31:02;4.77;;;3.20;;
19664;SDS011;9980;51.020;7.772;2023-12-28T09:33:30;5.70;;;3.80;;
19664;SDS011;9980;51.020;7.772;2023-12-28T09:35:57;3.37;;;3.07;;
19664;SDS011;9980;51.020;7.772;2023-12-28T09:38:24;5.57;;;3.63;;
19664;SDS011;9980;51.020;7.772;2023-12-28T09:40:53;3.43;;;2.83;;
19664;SDS011;9980;51.020;7.772;2023-12-28T09:43:22;4.37;;;3.10;;
19664;SDS011;9980;51.020;7.772;2023-12-28T09:45:53;2.77;;;2.57;;
19664;SDS011;9980;51.020;7.772;2023-12-28T09:48:21;3.50;;;3.13;;
19664;SDS011;9980;51.020;7.772;2023-12-28T09:50:50;5.03;;;3.60;;
19664;SDS011;9980;51.020;7.772;2023-12-28T09:53:22;3.97;;;3.20;;
19664;SDS011;9980;51.020;7.772;2023-12-28T09:55:49;4.27;;;2.70;;
19664;SDS011;9980;51.020;7.772;2023-12-28T09:58:20;4.37;;;2.80;;
19664;SDS011;9980;51.020;7.772;2023-12-28T10:00:50;3.57;;;2.90;;
19664;SDS011;9980;51.020;7.772;2023-12-28T10:03:17;3.83;;;2.83;;
19664;SDS011;9980;51.020;7.772;2023-12-28T10:05:46;3.83;;;3.00;;
19664;SDS011;9980;51.020;7.772;2023-12-28T10:08:14;4.03;;;2.90;;
19664;SDS011;9980;51.020;7.772;2023-12-28T10:10:42;5.07;;;2.60;;
19664;SDS011;9980;51.020;7.772;2023-12-28T10:13:17;2.90;;;2.63;;
19664;SDS011;9980;51.020;7.772;2023-12-28T10:15:44;6.90;;;3.27;;
19664;SDS011;9980;51.020;7.772;2023-12-28T10:18:11;7.50;;;2.93;;
19664;SDS011;9980;51.020;7.772;2023-12-28T10:20:38;2.90;;;2.53;;
19664;SDS011;9980;51.020;7.772;2023-12-28T10:23:05;4.10;;;3.07;;
19664;SDS011;9980;51.020;7.772;2023-12-28T10:25:33;5.50;;;2.83;;
19664;SDS011;9980;51.020;7.772;2023-12-28T10:28:05;2.73;;;2.50;;
19664;SDS011;9980;51.020;7.772;2023-12-28T10:30:32;5.30;;;2.80;;
19664;SDS011;9980;51.020;7.772;2023-12-28T10:33:00;2.80;;;2.57;;
19664;SDS011;9980;51.020;7.772;2023-12-28T10:35:28;5.43;;;3.00;;
19664;SDS011;9980;51.020;7.772;2023-12-28T10:37:56;4.37;;;2.60;;
19664;SDS011;9980;51.020;7.772;2023-12-28T10:40:29;6.57;;;2.67;;
19664;SDS011;9980;51.020;7.772;2023-12-28T10:43:04;3.90;;;2.60;;
19664;SDS011;9980;51.020;7.772;2023-12-28T10:45:33;7.13;;;2.87;;
19664;SDS011;9980;51.020;7.772;2023-12-28T10:48:04;3.00;;;2.37;;
19664;SDS011;9980;51.020;7.772;2023-12-28T10:50:39;2.50;;;2.30;;
19664;SDS011;9980;51.020;7.772;2023-12-28T10:53:11;3.80;;;2.70;;
19664;SDS011;9980;51.020;7.772;2023-12-28T10:56:28;4.10;;;2.43;;
19664;SDS011;9980;51.020;7.772;2023-12-28T11:02:11;3.13;;;2.17;;
19664;SDS011;9980;51.020;7.772;2023-12-28T11:04:44;5.07;;;2.33;;
19664;SDS011;9980;51.020;7.772;2023-12-28T11:07:16;5.30;;;2.50;;
19664;SDS011;9980;51.020;7.772;2023-12-28T11:09:44;8.67;;;2.57;;
19664;SDS011;9980;51.020;7.772;2023-12-28T11:12:13;3.10;;;2.33;;
19664;SDS011;9980;51.020;7.772;2023-12-28T11:14:44;3.00;;;2.33;;
19664;SDS011;9980;51.020;7.772;2023-12-28T11:17:14;2.57;;;2.20;;
19664;SDS011;9980;51.020;7.772;2023-12-28T11:19:43;2.73;;;2.40;;
19664;SDS011;9980;51.020;7.772;2023-12-28T11:22:11;2.93;;;2.40;;
19664;SDS011;9980;51.020;7.772;2023-12-28T11:24:38;3.60;;;2.30;;
19664;SDS011;9980;51.020;7.772;2023-12-28T11:27:05;4.27;;;2.27;;
19664;SDS011;9980;51.020;7.772;2023-12-28T11:29:36;3.67;;;2.30;;
19664;SDS011;9980;51.020;7.772;2023-12-28T11:32:04;3.03;;;2.30;;
19664;SDS011;9980;51.020;7.772;2023-12-28T11:34:31;3.43;;;2.13;;
19664;SDS011;9980;51.020;7.772;2023-12-28T11:37:09;5.03;;;2.30;;
19664;SDS011;9980;51.020;7.772;2023-12-28T11:39:44;4.33;;;2.23;;
19664;SDS011;9980;51.020;7.772;2023-12-28T11:42:11;3.77;;;2.30;;
19664;SDS011;9980;51.020;7.772;2023-12-28T11:44:46;3.50;;;1.97;;
19664;SDS011;9980;51.020;7.772;2023-12-28T11:47:13;5.27;;;2.40;;
19664;SDS011;9980;51.020;7.772;2023-12-28T11:49:48;2.70;;;2.50;;
19664;SDS011;9980;51.020;7.772;2023-12-28T11:52:25;2.17;;;1.93;;
19664;SDS011;9980;51.020;7.772;2023-12-28T11:54:53;5.20;;;2.10;;
19664;SDS011;9980;51.020;7.772;2023-12-28T11:57:21;6.70;;;2.57;;
19664;SDS011;9980;51.020;7.772;2023-12-28T11:59:56;2.57;;;2.10;;
19664;SDS011;9980;51.020;7.772;2023-12-28T12:02:26;4.63;;;2.00;;
19664;SDS011;9980;51.020;7.772;2023-12-28T12:04:53;2.23;;;2.03;;
19664;SDS011;9980;51.020;7.772;2023-12-28T12:07:23;4.10;;;2.43;;
19664;SDS011;9980;51.020;7.772;2023-12-28T12:09:55;3.33;;;2.00;;
19664;SDS011;9980;51.020;7.772;2023-12-28T12:12:26;4.03;;;2.20;;
19664;SDS011;9980;51.020;7.772;2023-12-28T12:14:54;2.93;;;2.10;;
19664;SDS011;9980;51.020;7.772;2023-12-28T12:17:22;3.13;;;2.20;;
19664;SDS011;9980;51.020;7.772;2023-12-28T12:19:51;3.80;;;2.30;;
19664;SDS011;9980;51.020;7.772;2023-12-28T12:22:21;2.43;;;2.00;;
19664;SDS011;9980;51.020;7.772;2023-12-28T12:24:52;3.33;;;2.27;;
19664;SDS011;9980;51.020;7.772;2023-12-28T12:27:22;4.63;;;2.10;;
19664;SDS011;9980;51.020;7.772;2023-12-28T12:29:49;2.87;;;2.17;;
19664;SDS011;9980;51.020;7.772;2023-12-28T12:32:16;3.00;;;2.30;;
19664;SDS011;9980;51.020;7.772;2023-12-28T12:34:43;3.37;;;2.20;;
19664;SDS011;9980;51.020;7.772;2023-12-28T12:37:11;4.43;;;2.20;;
19664;SDS011;9980;51.020;7.772;2023-12-28T12:39:38;4.13;;;2.63;;
19664;SDS011;9980;51.020;7.772;2023-12-28T12:42:05;3.67;;;2.00;;
19664;SDS011;9980;51.020;7.772;2023-12-28T12:44:33;2.93;;;1.90;;
19664;SDS011;9980;51.020;7.772;2023-12-28T12:47:00;3.87;;;1.83;;
19664;SDS011;9980;51.020;7.772;2023-12-28T12:49:28;3.67;;;2.20;;
19664;SDS011;9980;51.020;7.772;2023-12-28T12:51:55;2.87;;;1.97;;
19664;SDS011;9980;51.020;7.772;2023-12-28T12:54:26;6.03;;;2.20;;
19664;SDS011;9980;51.020;7.772;2023-12-28T12:56:54;2.30;;;1.97;;
19664;SDS011;9980;51.020;7.772;2023-12-28T12:59:23;3.17;;;1.97;;
19664;SDS011;9980;51.020;7.772;2023-12-28T13:01:51;2.97;;;1.70;;
19664;SDS011;9980;51.020;7.772;2023-12-28T13:04:20;2.13;;;1.87;;
19664;SDS011;9980;51.020;7.772;2023-12-28T13:06:48;4.17;;;2.00;;
19664;SDS011;9980;51.020;7.772;2023-12-28T13:09:15;6.00;;;2.27;;
19664;SDS011;9980;51.020;7.772;2023-12-28T13:11:42;3.17;;;2.00;;
19664;SDS011;9980;51.020;7.772;2023-12-28T13:14:10;3.80;;;1.87;;
19664;SDS011;9980;51.020;7.772;2023-12-28T13:16:37;5.17;;;2.30;;
19664;SDS011;9980;51.020;7.772;2023-12-28T13:19:04;3.57;;;2.00;;
19664;SDS011;9980;51.020;7.772;2023-12-28T13:21:31;2.13;;;1.93;;
19664;SDS011;9980;51.020;7.772;2023-12-28T13:23:58;4.50;;;1.90;;
19664;SDS011;9980;51.020;7.772;2023-12-28T13:26:27;5.50;;;2.13;;
19664;SDS011;9980;51.020;7.772;2023-12-28T13:28:54;5.57;;;2.00;;
19664;SDS011;9980;51.020;7.772;2023-12-28T13:31:22;2.83;;;2.13;;
19664;SDS011;9980;51.020;7.772;2023-12-28T13:33:51;4.10;;;2.30;;
19664;SDS011;9980;51.020;7.772;2023-12-28T13:36:18;3.20;;;2.17;;
19664;SDS011;9980;51.020;7.772;2023-12-28T13:38:45;3.07;;;2.23;;
19664;SDS011;9980;51.020;7.772;2023-12-28T13:41:12;3.67;;;2.17;;
19664;SDS011;9980;51.020;7.772;2023-12-28T13:43:39;4.10;;;2.67;;
19664;SDS011;9980;51.020;7.772;2023-12-28T13:46:06;3.63;;;2.10;;
19664;SDS011;9980;51.020;7.772;2023-12-28T13:48:33;5.67;;;2.43;;
19664;SDS011;9980;51.020;7.772;2023-12-28T13:51:01;3.17;;;2.27;;
19664;SDS011;9980;51.020;7.772;2023-12-28T13:53:28;5.93;;;2.77;;
19664;SDS011;9980;51.020;7.772;2023-12-28T13:55:55;2.93;;;2.10;;
19664;SDS011;9980;51.020;7.772;2023-12-28T13:58:22;3.40;;;2.30;;
19664;SDS011;9980;51.020;7.772;2023-12-28T14:00:49;4.23;;;2.13;;
19664;SDS011;9980;51.020;7.772;2023-12-28T14:03:16;2.93;;;1.93;;
19664;SDS011;9980;51.020;7.772;2023-12-28T14:05:43;5.93;;;1.97;;
19664;SDS011;9980;51.020;7.772;2023-12-28T14:08:10;3.83;;;2.37;;
19664;SDS011;9980;51.020;7.772;2023-12-28T14:10:37;2.80;;;2.07;;
19664;SDS011;9980;51.020;7.772;2023-12-28T14:13:04;7.60;;;2.20;;
19664;SDS011;9980;51.020;7.772;2023-12-28T14:15:32;5.07;;;2.03;;
19664;SDS011;9980;51.020;7.772;2023-12-28T14:17:59;4.57;;;2.00;;
19664;SDS011;9980;51.020;7.772;2023-12-28T14:20:26;4.97;;;2.00;;
19664;SDS011;9980;51.020;7.772;2023-12-28T14:22:54;3.60;;;2.10;;
19664;SDS011;9980;51.020;7.772;2023-12-28T14:25:22;2.80;;;2.10;;
19664;SDS011;9980;51.020;7.772;2023-12-28T14:27:49;3.40;;;2.00;;
19664;SDS011;9980;51.020;7.772;2023-12-28T14:30:18;4.07;;;2.30;;
19664;SDS011;9980;51.020;7.772;2023-12-28T14:32:46;4.67;;;2.20;;
19664;SDS011;9980;51.020;7.772;2023-12-28T14:35:13;4.13;;;2.13;;
19664;SDS011;9980;51.020;7.772;2023-12-28T14:37:44;2.53;;;1.87;;
19664;SDS011;9980;51.020;7.772;2023-12-28T14:40:11;4.03;;;2.20;;
19664;SDS011;9980;51.020;7.772;2023-12-28T14:42:38;2.00;;;1.80;;
19664;SDS011;9980;51.020;7.772;2023-12-28T14:45:05;3.60;;;2.30;;
19664;SDS011;9980;51.020;7.772;2023-12-28T14:47:33;2.73;;;1.93;;
19664;SDS011;9980;51.020;7.772;2023-12-28T14:50:00;4.33;;;2.33;;
19664;SDS011;9980;51.020;7.772;2023-12-28T14:52:28;4.70;;;2.10;;
19664;SDS011;9980;51.020;7.772;2023-12-28T14:54:55;4.90;;;2.03;;
19664;SDS011;9980;51.020;7.772;2023-12-28T14:57:22;5.63;;;2.60;;
19664;SDS011;9980;51.020;7.772;2023-12-28T14:59:49;5.17;;;2.37;;
19664;SDS011;9980;51.020;7.772;2023-12-28T15:02:16;4.10;;;2.23;;
19664;SDS011;9980;51.020;7.772;2023-12-28T15:04:43;4.17;;;2.40;;
19664;SDS011;9980;51.020;7.772;2023-12-28T15:07:11;4.30;;;3.00;;
19664;SDS011;9980;51.020;7.772;2023-12-28T15:09:38;7.13;;;3.20;;
19664;SDS011;9980;51.020;7.772;2023-12-28T15:12:05;3.50;;;2.47;;
19664;SDS011;9980;51.020;7.772;2023-12-28T15:14:32;3.03;;;2.10;;